Flight Track Log - Related Links

Times and Time Zones

All times are in EDT time to prevent confusion due to time zone crossing. See the AWE1714 flight status page for this flight to view local times or setup timezone preferences in your user account.

Time Position Orientation Groundspeed Altitude Reporting Facility
EDT Latitude Longitude Course Direction KTS MPH feet Rate Location/Type
Sat 12:48:09 PM 17.9667 -63.1167 282° West 220 253 4,200  Level San Juan Center
Sat 12:49:00 PM 18.3755 -63.3961 281° West  Level Estimated
Sat 12:49:09 PM 18.0167 -63.1833 308° West 250 288 6,300  Level San Juan Center
Sat 12:50:00 PM 18.3404 -63.5036 251° West  Level FlightAware Approximate
Sat 12:50:09 PM 18.0500 -63.2500 298° West 290 334 8,800  Level San Juan Center
Sat 12:51:00 PM 18.4242 -63.5752 279° West  Level Estimated
Sat 12:51:09 PM 18.0667 -63.3333 282° West 300 345 10,900  Level San Juan Center
Sat 12:52:00 PM 18.5080 -63.6469 270° West  Level Estimated
Sat 12:52:09 PM 18.0833 -63.4333 280° West 360 414 12,500  Level San Juan Center
Sat 12:53:00 PM 18.5918 -63.7187 282° West  Level Estimated
Sat 12:53:10 PM 18.1000 -63.5333 280° West 370 426 14,900  Level San Juan Center
Sat 12:54:10 PM 18.1333 -63.6500 287° West 370 426 16,700 1,900 Climbing San Juan Center
Sat 12:55:10 PM 18.1667 -63.7500 289° West 390 449 18,700 1,800 Climbing San Juan Center
Sat 12:56:10 PM 18.2167 -63.8667 294° West 400 460 20,300 1,700 Climbing San Juan Center
Sat 12:57:10 PM 18.2500 -63.9667 289° West 400 460 22,100 1,550 Climbing San Juan Center
Sat 12:58:10 PM 18.2667 -64.1000 278° West 400 460 23,400 1,250 Climbing San Juan Center
Sat 12:59:10 PM 18.3000 -64.2000 289° West 400 460 24,600 1,100 Climbing San Juan Center
Sat 01:00:10 PM 18.3333 -64.3167 287° West 410 472 25,600 1,240 Climbing San Juan Center
Sat 01:01:11 PM 18.3167 -64.4333 261° West 410 472 27,100 1,438 Climbing San Juan Center
Sat 01:02:11 PM 18.3000 -64.5500 261° West 400 460 28,500 950 Climbing San Juan Center
Sat 01:03:11 PM 18.2667 -64.6667 253° West 410 472 29,000 550 Climbing San Juan Center
Sat 01:04:11 PM 18.2167 -64.7833 246° West 430 495 29,600 550 Climbing San Juan Center
Sat 01:05:11 PM 18.2333 -64.9000 279° West 440 506 30,100 595 Climbing San Juan Center
Sat 01:06:12 PM 18.3000 -65.0000 305° West 460 529 30,800 843 Climbing San Juan Center
Sat 01:07:12 PM 18.3833 -65.1000 311° West 460 529 31,800 1,050 Climbing San Juan Center
Sat 01:08:12 PM 18.4833 -65.2167 312° West 460 529 32,900 1,160 Climbing San Juan Center
Sat 01:09:11 PM 18.5667 -65.3167 311° West 440 506 34,100 600 Climbing San Juan Center
Sat 01:10:12 PM 18.6333 -65.4167 305° West 440 506 34,100  Level San Juan Center
Sat 01:11:12 PM 18.7167 -65.5167 311° West 440 506 34,100  Level San Juan Center
Sat 01:12:12 PM 18.8000 -65.6167 311° West 440 506 34,100  Level San Juan Center
Sat 01:13:12 PM 18.8833 -65.7167 311° West 440 506 34,100  Level San Juan Center
Sat 01:14:12 PM 18.9667 -65.8167 311° West 440 506 34,100  Level San Juan Center
Sat 01:15:13 PM 19.0500 -65.9000 317° Northwest 440 506 34,100  Level San Juan Center
Sat 01:16:12 PM 19.1167 -66.0000 305° West 430 495 34,100  Level San Juan Center
Sat 01:17:13 PM 19.1833 -66.0833 310° West 430 495 34,100  Level San Juan Center
Sat 01:18:13 PM 19.2667 -66.1833 311° West 430 495 34,100 -50 Level San Juan Center
Sat 01:19:13 PM 19.3500 -66.2833 311° West 450 518 34,000 250 Descending San Juan Center
Sat 01:20:13 PM 19.4333 -66.3833 311° West 440 506 34,600 1,000 Climbing San Juan Center
Sat 01:21:13 PM 19.5000 -66.4833 305° West 440 506 36,000 700 Climbing San Juan Center
Sat 01:22:13 PM 19.5833 -66.5833 312° West 430 495 36,000  Level San Juan Center
Sat 01:23:13 PM 19.6667 -66.6667 317° Northwest 430 495 36,000  Level San Juan Center
Sat 01:24:14 PM 19.7333 -66.7667 305° West 440 506 36,000  Level San Juan Center
Sat 01:25:14 PM 19.8167 -66.8667 312° West 430 495 36,000  Level San Juan Center
Sat 01:26:14 PM 19.9000 -66.9667 312° West 430 495 36,000  Level San Juan Center
Sat 01:27:14 PM 19.9833 -67.0667 312° West 440 506 36,000  Level San Juan Center
Sat 01:28:14 PM 20.0500 -67.1667 305° West 430 495 36,000  Level San Juan Center
Sat 01:29:14 PM 20.1333 -67.2667 312° West 440 506 36,000  Level San Juan Center
Sat 01:30:14 PM 20.2167 -67.3500 317° Northwest 430 495 36,000  Level San Juan Center
Sat 01:31:15 PM 20.2833 -67.4500 305° West 430 495 36,000  Level San Juan Center
Sat 01:32:15 PM 20.3667 -67.5500 312° West 430 495 36,000  Level San Juan Center
Sat 01:33:15 PM 20.4333 -67.6500 305° West 430 495 36,000  Level San Juan Center
Sat 01:34:15 PM 20.5167 -67.7500 312° West 430 495 36,000  Level San Juan Center
Sat 01:35:27 PM 20.6275 -67.8828 312° West 430 495 36,000  Level Miami Center
Sat 01:36:27 PM 20.7058 -67.9794 311° West 430 495 36,000  Level Miami Center
Sat 01:37:27 PM 20.7942 -68.0689 317° Northwest 430 495 36,000  Level Miami Center
Sat 01:38:27 PM 20.8844 -68.1539 319° Northwest 430 495 36,000  Level Miami Center
Sat 01:39:27 PM 20.9764 -68.2364 320° Northwest 430 495 36,000  Level Miami Center
Sat 01:40:27 PM 21.0664 -68.3194 319° Northwest 430 495 36,000  Level Miami Center
Sat 01:41:27 PM 21.1583 -68.4003 321° Northwest 430 495 36,000  Level Miami Center
Sat 01:43:27 PM 21.3486 -68.5683 321° Northwest 436 502 36,000  Level Miami Center
Sat 01:44:27 PM 21.4342 -68.6497 318° Northwest 436 502 36,000  Level Miami Center
Sat 01:45:27 PM 21.5325 -68.7350 321° Northwest 436 502 36,000  Level Miami Center
Sat 01:46:27 PM 21.6203 -68.8189 318° Northwest 436 502 36,000  Level Miami Center
Sat 01:47:27 PM 21.7100 -68.9025 319° Northwest 436 502 36,000  Level Miami Center
Sat 01:48:27 PM 21.8039 -68.9842 321° Northwest 431 496 36,000  Level Miami Center
Sat 01:49:27 PM 21.8958 -69.0700 319° Northwest 437 503 36,000  Level Miami Center
Sat 01:50:27 PM 21.9939 -69.1536 322° Northwest 437 503 36,000  Level Miami Center
Sat 01:51:27 PM 22.0794 -69.2381 318° Northwest 431 496 36,000  Level Miami Center
Sat 01:52:27 PM 22.1753 -69.3244 320° Northwest 431 496 36,000  Level Miami Center
Sat 01:53:27 PM 22.2650 -69.4089 319° Northwest 431 496 36,000  Level Miami Center
Sat 01:54:27 PM 22.3589 -69.4953 320° Northwest 436 502 36,000  Level Miami Center
Sat 01:55:27 PM 22.4525 -69.5797 320° Northwest 436 502 36,000  Level Miami Center
Sat 01:56:27 PM 22.5444 -69.6667 319° Northwest 436 502 36,000  Level Miami Center
Sat 01:57:27 PM 22.6336 -69.7494 319° Northwest 431 496 36,000  Level Miami Center
Sat 01:58:27 PM 22.7275 -69.8386 319° Northwest 431 496 36,000  Level Miami Center
Sat 01:59:27 PM 22.8169 -69.9194 320° Northwest 431 496 36,000  Level Miami Center
Sat 02:00:27 PM 22.9064 -70.0044 319° Northwest 431 496 36,000  Level Miami Center
Sat 02:01:27 PM 23.0022 -70.0942 319° Northwest 431 496 36,000  Level Miami Center
Sat 02:02:27 PM 23.0936 -70.1817 319° Northwest 432 497 36,000  Level Miami Center
Sat 02:03:27 PM 23.1894 -70.2717 319° Northwest 437 503 36,000  Level Miami Center
Sat 02:04:27 PM 23.2808 -70.3572 319° Northwest 437 503 36,000 -150 Level Miami Center
Sat 02:05:27 PM 23.3722 -70.4453 319° Northwest 437 503 35,700 -500 Descending Miami Center
Sat 02:06:27 PM 23.4675 -70.5308 321° Northwest 437 503 35,000 -650 Descending Miami Center
Sat 02:07:27 PM 23.5589 -70.6192 318° Northwest 437 503 34,400 -650 Descending Miami Center
Sat 02:08:27 PM 23.6525 -70.7119 318° Northwest 431 496 33,700 -700 Descending Miami Center
Sat 02:09:27 PM 23.7481 -70.8025 319° Northwest 442 509 33,000 -350 Descending Miami Center
Sat 02:10:27 PM 23.8414 -70.8911 319° Northwest 442 509 33,000  Level Miami Center
Sat 02:11:27 PM 23.9369 -70.9819 319° Northwest 447 514 33,000  Level Miami Center
Sat 02:12:27 PM 24.0322 -71.0750 318° Northwest 454 522 33,000  Level Miami Center
Sat 02:13:27 PM 24.1256 -71.1664 318° Northwest 454 522 33,000  Level Miami Center
Sat 02:14:27 PM 24.2208 -71.2553 320° Northwest 459 528 33,000  Level Miami Center
Sat 02:15:27 PM 24.3164 -71.3558 316° Northwest 459 528 33,000  Level Miami Center
Sat 02:16:27 PM 24.4136 -71.4450 320° Northwest 459 528 33,000  Level Miami Center
Sat 02:17:27 PM 24.5089 -71.5367 319° Northwest 459 528 33,000  Level Miami Center
Sat 02:18:27 PM 24.6019 -71.6308 317° Northwest 454 522 33,000  Level Miami Center
Sat 02:19:27 PM 24.6992 -71.7181 321° Northwest 454 522 33,000  Level Miami Center
Sat 02:20:27 PM 24.7944 -71.8169 317° Northwest 459 528 33,000  Level Miami Center
Sat 02:21:27 PM 24.9000 -71.9133 320° Northwest 454 522 33,000  Level Miami Center
Sat 02:22:27 PM 24.9900 -71.9831 325° Northwest 448 516 33,000  Level Miami Center
Sat 02:22:50 PM 25.0000 -72.0000 330° Northwest 466 536 33,000  Level New York Oceanic (ODAPS)
Sat 02:30:00 PM 25.8996 -72.5721 330° Northwest 466 536 33,000  Level FlightAware Transoceanic
Sat 02:31:00 PM 26.0119 -72.6442 330° Northwest 466 536 33,000  Level FlightAware Transoceanic
Sat 02:32:00 PM 26.1242 -72.7164 330° Northwest 466 536 33,000  Level FlightAware Transoceanic
Sat 02:33:00 PM 26.2364 -72.7888 330° Northwest 466 536 33,000  Level FlightAware Transoceanic
Sat 02:34:00 PM 26.3486 -72.8613 330° Northwest 466 536 33,000  Level FlightAware Transoceanic
Sat 02:35:00 PM 26.4608 -72.9340 330° Northwest 466 536 33,000  Level FlightAware Transoceanic
Sat 02:36:00 PM 26.5729 -73.0068 330° Northwest 466 536 33,000  Level FlightAware Transoceanic
Sat 02:37:00 PM 26.6849 -73.0798 330° Northwest 466 536 33,000  Level FlightAware Transoceanic
Sat 02:38:00 PM 26.7970 -73.1529 330° Northwest 466 536 33,000  Level FlightAware Transoceanic
Sat 02:39:00 PM 26.9090 -73.2261 330° Northwest 466 536 33,000  Level FlightAware Transoceanic
Sat 02:40:00 PM 27.0210 -73.2995 330° Northwest 466 536 33,000  Level FlightAware Transoceanic
Sat 02:41:00 PM 27.1329 -73.3730 330° Northwest 466 536 33,000  Level FlightAware Transoceanic
Sat 02:42:00 PM 27.2448 -73.4467 330° Northwest 466 536 33,000  Level FlightAware Transoceanic
Sat 02:43:00 PM 27.3566 -73.5206 330° Northwest 466 536 33,000  Level FlightAware Transoceanic
Sat 02:44:00 PM 27.4684 -73.5945 330° Northwest 466 536 33,000  Level FlightAware Transoceanic
Sat 02:45:00 PM 27.5802 -73.6687 330° Northwest 466 536 33,000  Level FlightAware Transoceanic
Sat 02:46:00 PM 27.6919 -73.7430 329° Northwest 466 536 33,000  Level FlightAware Transoceanic
Sat 02:47:00 PM 27.8036 -73.8174 329° Northwest 466 536 33,000  Level FlightAware Transoceanic
Sat 02:48:00 PM 27.9153 -73.8920 329° Northwest 466 536 33,000  Level FlightAware Transoceanic
Sat 02:49:00 PM 28.0269 -73.9667 329° Northwest 466 536 33,000  Level FlightAware Transoceanic
Sat 02:50:00 PM 28.1385 -74.0416 329° Northwest 466 536 33,000  Level FlightAware Transoceanic
Sat 02:51:00 PM 28.2500 -74.1167 322° Northwest 466 536 33,000  Level FlightAware Transoceanic
Sat 02:51:24 PM 28.2500 -74.1167 322° Northwest 478 550 33,000  Level New York Oceanic (ODAPS)
Sat 02:52:00 PM 28.3543 -74.2100 322° Northwest 466 536 33,000  Level FlightAware Transoceanic
Sat 02:53:00 PM 28.4586 -74.3035 322° Northwest 466 536 33,000  Level FlightAware Transoceanic
Sat 02:54:00 PM 28.5627 -74.3971 322° Northwest 466 536 33,000  Level FlightAware Transoceanic
Sat 02:55:00 PM 28.6669 -74.4910 322° Northwest 466 536 33,000  Level FlightAware Transoceanic
Sat 02:56:00 PM 28.7709 -74.5850 322° Northwest 466 536 33,000  Level FlightAware Transoceanic
Sat 02:57:00 PM 28.8749 -74.6793 322° Northwest 478 550 33,000  Level FlightAware Transoceanic
Sat 02:58:00 PM 28.9788 -74.7737 321° Northwest 478 550 33,000  Level FlightAware Transoceanic
Sat 02:59:00 PM 29.0827 -74.8683 321° Northwest 478 550 33,000  Level FlightAware Transoceanic
Sat 03:00:00 PM 29.1865 -74.9631 321° Northwest 478 550 33,000  Level FlightAware Transoceanic
Sat 03:01:00 PM 29.2902 -75.0581 321° Northwest 478 550 33,000  Level FlightAware Transoceanic
Sat 03:02:00 PM 29.3939 -75.1533 321° Northwest 478 550 33,000  Level FlightAware Transoceanic
Sat 03:03:00 PM 29.4975 -75.2487 321° Northwest 478 550 33,000  Level FlightAware Transoceanic
Sat 03:04:00 PM 29.6010 -75.3442 321° Northwest 478 550 33,000  Level FlightAware Transoceanic
Sat 03:05:00 PM 29.7044 -75.4400 321° Northwest 478 550 33,000  Level FlightAware Transoceanic
Sat 03:06:00 PM 29.8078 -75.5360 321° Northwest 478 550 33,000  Level FlightAware Transoceanic
Sat 03:07:00 PM 29.9111 -75.6322 321° Northwest 478 550 33,000  Level FlightAware Transoceanic
Sat 03:08:00 PM 30.0144 -75.7285 321° Northwest 478 550 33,000  Level FlightAware Transoceanic
Sat 03:09:00 PM 30.1176 -75.8251 321° Northwest 478 550 33,000  Level FlightAware Transoceanic
Sat 03:10:00 PM 30.2207 -75.9219 321° Northwest 478 550 33,000  Level FlightAware Transoceanic
Sat 03:11:00 PM 30.3237 -76.0188 321° Northwest 478 550 33,000  Level FlightAware Transoceanic
Sat 03:12:00 PM 30.4266 -76.1160 321° Northwest 478 550 33,000  Level FlightAware Transoceanic
Sat 03:13:00 PM 30.5295 -76.2134 321° Northwest 478 550 33,000  Level FlightAware Transoceanic
Sat 03:14:00 PM 30.6324 -76.3110 321° Northwest 478 550 33,000  Level FlightAware Transoceanic
Sat 03:15:00 PM 30.7351 -76.4088 321° Northwest 478 550 33,000  Level FlightAware Transoceanic
Sat 03:16:00 PM 30.8378 -76.5068 321° Northwest 478 550 33,000  Level FlightAware Transoceanic
Sat 03:17:00 PM 30.9404 -76.6050 321° Northwest 478 550 33,000  Level FlightAware Transoceanic
Sat 03:17:30 PM 31.0111 -76.6108 321° Northwest 452 520 33,000  Level Jacksonville Center
Sat 03:18:00 PM 31.0429 -76.7034 321° Northwest 478 550 33,000 -100 Level FlightAware Transoceanic
Sat 03:18:30 PM 31.1097 -76.7061 320° Northwest 452 520 32,900  Descending Jacksonville Center
Sat 03:19:00 PM 31.1453 -76.8021 320° Northwest 478 550 33,000 100 Climbing FlightAware Transoceanic
Sat 03:19:30 PM 31.2083 -76.8064 319° Northwest 465 535 33,000  Level Jacksonville Center
Sat 03:20:00 PM 31.2477 -76.9009 320° Northwest 478 550 33,000  Level FlightAware Transoceanic
Sat 03:20:30 PM 31.3033 -76.9119 317° Northwest 465 535 33,000  Level Jacksonville Center
Sat 03:21:00 PM 31.3500 -77.0000 321° Northwest 478 550 33,000 -100 Level FlightAware Transoceanic
Sat 03:21:30 PM 31.3814 -77.0214 310° West 458 527 32,900  Descending Jacksonville Center
Sat 03:22:00 PM 31.4503 -77.0936 321° Northwest 478 550 33,000 100 Climbing FlightAware Transoceanic
Sat 03:22:30 PM 31.4800 -77.1222 319° Northwest 458 527 33,000 1,133 Level Jacksonville Center
Sat 03:23:30 PM 31.5822 -77.2133 323° Northwest 458 527 34,700 1,400 Climbing Jacksonville Center
Sat 03:24:30 PM 31.6819 -77.3025 323° Northwest 458 527 35,800 650 Climbing Jacksonville Center
Sat 03:25:30 PM 31.7822 -77.3992 321° Northwest 464 534 36,000 100 Climbing Jacksonville Center
Sat 03:26:30 PM 31.8800 -77.4886 322° Northwest 464 534 36,000  Level Jacksonville Center
Sat 03:27:30 PM 31.9781 -77.5858 320° Northwest 459 528 36,000 -50 Level Jacksonville Center
Sat 03:28:30 PM 32.0700 -77.6858 317° Northwest 453 521 35,900 -50 Descending Jacksonville Center
Sat 03:29:30 PM 32.1594 -77.7836 317° Northwest 448 516 35,900 50 Level Jacksonville Center
Sat 03:30:30 PM 32.2575 -77.8839 319° Northwest 434 499 36,000 50 Climbing Jacksonville Center
Sat 03:31:30 PM 32.3511 -77.9844 318° Northwest 434 499 36,000  Level Jacksonville Center
Sat 03:32:30 PM 32.4428 -78.0853 317° Northwest 439 505 36,000  Level Jacksonville Center
Sat 03:33:30 PM 32.5342 -78.1864 317° Northwest 439 505 36,000  Level Jacksonville Center
Sat 03:34:30 PM 32.6256 -78.2878 317° Northwest 445 512 36,000 -300 Level Jacksonville Center
Sat 03:35:30 PM 32.7167 -78.3842 318° Northwest 445 512 35,400 -650 Descending Jacksonville Center
Sat 03:36:30 PM 32.8081 -78.4883 316° Northwest 445 512 34,700 -700 Descending Jacksonville Center
Sat 03:37:30 PM 32.9011 -78.5903 317° Northwest 450 518 34,000 -700 Descending Jacksonville Center
Sat 03:38:30 PM 32.9944 -78.6922 318° Northwest 450 518 33,300 -700 Descending Jacksonville Center
Sat 03:39:30 PM 33.0897 -78.7969 317° Northwest 450 518 32,600 -700 Descending Jacksonville Center
Sat 03:40:30 PM 33.1869 -78.8992 319° Northwest 455 524 31,900 -700 Descending Jacksonville Center
Sat 03:41:30 PM 33.2819 -79.0042 317° Northwest 460 529 31,200 -450 Descending Jacksonville Center
Sat 03:42:30 PM 33.3792 -79.1119 317° Northwest 460 529 31,000 -100 Descending Jacksonville Center
Sat 03:43:30 PM 33.4719 -79.2150 317° Northwest 460 529 31,000  Level Jacksonville Center
Sat 03:44:30 PM 33.5667 -79.3206 317° Northwest 460 529 31,000 -200 Level Jacksonville Center
Sat 03:45:30 PM 33.6594 -79.4242 317° Northwest 460 529 30,600 -1,150 Descending Jacksonville Center
Sat 03:46:30 PM 33.7561 -79.5303 318° Northwest 460 529 28,700 -2,600 Descending Jacksonville Center
Sat 03:47:30 PM 33.8486 -79.6392 316° Northwest 460 529 25,400 -2,400 Descending Jacksonville Center
Sat 03:48:30 PM 33.9453 -79.7433 318° Northwest 460 529 23,900 -1,200 Descending Jacksonville Center
Sat 03:49:30 PM 34.0397 -79.8528 316° Northwest 460 529 23,000 -1,450 Descending Jacksonville Center
Sat 03:50:30 PM 34.1356 -79.9322 326° Northwest 465 535 21,000 -2,200 Descending Jacksonville Center
Sat 03:51:30 PM 34.2458 -80.0064 331° Northwest 465 535 18,600 -2,450 Descending Jacksonville Center
Sat 03:52:30 PM 34.3536 -80.0756 332° Northwest 452 520 16,100 -2,400 Descending Jacksonville Center
Sat 03:53:30 PM 34.4553 -80.1478 330° Northwest 440 506 13,800 -1,750 Descending Jacksonville Center
Sat 03:54:30 PM 34.5483 -80.2053 333° Northwest 410 472 12,600 -914 Descending Jacksonville Center
Sat 03:56:01 PM 34.6639 -80.2961 327° Northwest 276 318 11,500 -608 Descending Atlanta Center
Sat 03:57:08 PM 34.7244 -80.3717 314° West 266 306 11,000 -417 Descending Atlanta Center
Sat 03:57:56 PM 34.7617 -80.4283 309° West 269 310 10,700 -661 Descending Atlanta Center
Sat 03:58:57 PM 34.8033 -80.4997 305° West 264 304 9,800 -1,547 Descending Atlanta Center
Sat 04:00:04 PM 34.8497 -80.5814 305° West 256 295 7,400 -1,781 Descending Atlanta Center
Sat 04:01:05 PM 34.8892 -80.6583 302° West 259 298 6,000 -689 Descending Atlanta Center
Sat 04:02:06 PM 34.9289 -80.7300 304° West 257 296 6,000 -694 Level Atlanta Center
Sat 04:03:06 PM 34.9661 -80.8022 302° West 255 293 4,600 -1,041 Descending Atlanta Center
Sat 04:04:07 PM 35.0075 -80.8689 307° West 252 290 3,900 -750 Descending Atlanta Center
Sat 04:05:14 PM 35.0692 -80.9122 330° Northwest 194 223 3,000 -703 Descending Atlanta Center
Sat 04:06:15 PM 35.1156 -80.9308 342° North 178 205 2,400 -738 Descending Atlanta Center
Sat 04:07:16 PM 35.1636 -80.9342 357° North 154 177 1,500 -724 Descending Atlanta Center
Sat 04:08:11 PM 35.1928 -80.9356 358° North 122 140 1,000 -545 Descending Atlanta Center

Login

Don't have an account? Register now (free) for customized features, flight alerts, and more!